Stockton, Georgia
Current Conditions -  °F | °C
As of 8:10 AM on Monday 22 Dec 2014 (Local Time) from KVAD Reporting Station
Moderate Fog Moderate Fog  
Wind Chill: 50°   Ceiling: 200
Heat Index: 50°   Visibility: 0.25mi
Dew Point: 50°   Wind: 5mph
Humidity: 100%   Direction: 50°NE
Pressure: 30"   Gusts: NA
Location:  30.94°N, 83°W
Report Text: KVAD 221310Z AUTO 05004KT 1/4SM R36/1800FT FG VV002 10/10 A3000 RMK AO2
Loading
Personal Weather Stations






























Interactive Weather Map New forecast layout! Learn more

10-Day Weather Forecast

Advertisements
Track Severe Weather on mobile